createdAt,value
2023-02-04T00:00:27.469Z,0.60
2023-02-04T00:02:57.080Z,0.53
2023-02-04T00:05:23.655Z,0.88
2023-02-04T00:07:52.354Z,0.70
2023-02-04T00:10:19.045Z,0.65
2023-02-04T00:12:48.602Z,0.90
2023-02-04T00:15:15.172Z,0.60
2023-02-04T00:17:41.737Z,0.88
2023-02-04T00:20:08.796Z,0.73
2023-02-04T00:22:37.441Z,1.10
2023-02-04T00:25:04.129Z,0.73
2023-02-04T00:27:35.467Z,0.73
2023-02-04T00:30:02.420Z,0.88
2023-02-04T00:32:31.286Z,0.82
2023-02-04T00:34:57.996Z,1.35
2023-02-04T00:37:24.736Z,0.90
2023-02-04T00:39:51.338Z,0.80
2023-02-04T00:42:20.210Z,0.70
2023-02-04T00:44:46.849Z,1.08
2023-02-04T00:47:15.534Z,0.88
2023-02-04T00:49:42.183Z,0.88
2023-02-04T00:52:08.732Z,0.83
2023-02-04T00:54:35.325Z,0.98
2023-02-04T00:57:01.867Z,0.70
2023-02-04T00:59:30.742Z,0.77
2023-02-04T01:02:00.483Z,0.90
2023-02-04T01:04:28.376Z,0.83
2023-02-04T01:06:55.013Z,1.20
2023-02-04T01:09:24.563Z,0.93
2023-02-04T01:11:53.370Z,0.98
2023-02-04T01:14:22.243Z,1.10
2023-02-04T01:16:51.155Z,0.80
2023-02-04T01:19:21.058Z,0.95
2023-02-04T01:21:47.757Z,0.80
2023-02-04T01:24:16.557Z,0.95
2023-02-04T01:26:43.125Z,0.95
2023-02-04T01:29:12.466Z,0.90
2023-02-04T01:31:41.561Z,0.70
2023-02-04T01:34:10.511Z,0.70
2023-02-04T01:36:37.056Z,1.00
2023-02-04T01:39:03.650Z,0.80
2023-02-04T01:41:34.962Z,1.10
2023-02-04T01:44:03.888Z,0.70
2023-02-04T01:46:30.590Z,0.93
2023-02-04T01:49:01.998Z,0.88
2023-02-04T01:51:32.938Z,0.65
2023-02-04T01:54:02.071Z,0.90
2023-02-04T01:56:33.414Z,0.90
2023-02-04T01:59:04.715Z,0.90
2023-02-04T02:01:42.712Z,0.90
2023-02-04T02:04:14.782Z,0.90
2023-02-04T02:06:45.782Z,1.03
2023-02-04T02:09:12.550Z,0.82
2023-02-04T02:11:44.175Z,0.95
2023-02-04T02:14:11.560Z,1.20
2023-02-04T02:16:38.334Z,0.90
2023-02-04T02:19:07.937Z,0.60
2023-02-04T02:21:40.617Z,0.85
2023-02-04T02:24:37.685Z,0.90
2023-02-04T02:27:10.644Z,0.85
2023-02-04T02:29:42.584Z,0.73
2023-02-04T02:32:11.959Z,0.90
2023-02-04T02:34:39.721Z,1.10
2023-02-04T02:37:09.077Z,0.80
2023-02-04T02:39:39.844Z,0.70
2023-02-04T02:42:10.651Z,0.88
2023-02-04T02:44:39.523Z,0.90
2023-02-04T02:47:06.090Z,0.73
2023-02-04T02:49:34.934Z,0.95
2023-02-04T02:52:01.569Z,0.80
2023-02-04T02:54:34.999Z,0.82
2023-02-04T02:57:01.615Z,0.80
2023-02-04T02:59:30.683Z,0.70
2023-02-04T03:02:02.028Z,0.90
2023-02-04T03:04:37.360Z,0.80
2023-02-04T03:07:07.225Z,0.70
2023-02-04T03:09:36.639Z,0.70
2023-02-04T03:12:05.354Z,0.70
2023-02-04T03:14:32.862Z,0.60
2023-02-04T03:17:04.229Z,0.80
2023-02-04T03:19:30.904Z,0.70
2023-02-04T03:21:58.233Z,0.70
2023-02-04T03:24:27.417Z,0.80
2023-02-04T03:26:54.009Z,1.00
2023-02-04T03:29:20.643Z,1.25
2023-02-04T03:31:47.355Z,0.70
2023-02-04T03:34:18.828Z,0.90
2023-02-04T03:36:45.359Z,0.63
2023-02-04T03:39:11.929Z,0.88
2023-02-04T03:41:40.710Z,0.80
2023-02-04T03:44:07.239Z,1.02
2023-02-04T03:46:33.973Z,1.00
2023-02-04T03:49:03.105Z,0.90
2023-02-04T03:51:32.201Z,0.95
2023-02-04T03:53:58.772Z,0.68
2023-02-04T03:56:25.351Z,0.60
2023-02-04T03:58:51.911Z,0.90
2023-02-04T04:01:18.548Z,0.65
2023-02-04T04:03:45.184Z,0.93
2023-02-04T04:06:14.319Z,0.60
2023-02-04T04:08:40.914Z,0.70
2023-02-04T04:11:07.500Z,0.70
2023-02-04T04:13:34.047Z,0.57
2023-02-04T04:16:00.723Z,0.90
2023-02-04T04:18:27.414Z,1.10
2023-02-04T04:20:54.008Z,0.80
2023-02-04T04:23:20.529Z,0.80
2023-02-04T04:25:47.092Z,0.93
2023-02-04T04:28:13.670Z,1.10
2023-02-04T04:30:40.324Z,1.17
2023-02-04T04:33:06.858Z,0.70
2023-02-04T04:35:34.819Z,0.87
2023-02-04T04:38:02.256Z,1.13
2023-02-04T04:40:28.794Z,1.20
2023-02-04T04:42:55.732Z,0.90
2023-02-04T04:45:22.405Z,0.93
2023-02-04T04:47:51.003Z,0.87
2023-02-04T04:50:19.937Z,0.80
2023-02-04T04:52:46.714Z,0.80
2023-02-04T04:55:13.377Z,0.80
2023-02-04T04:57:39.982Z,0.82
2023-02-04T05:00:08.267Z,0.77
2023-02-04T05:02:37.048Z,0.80
2023-02-04T05:05:05.948Z,1.00
2023-02-04T05:07:32.604Z,1.00
2023-02-04T05:09:59.126Z,0.80
2023-02-04T05:12:28.701Z,0.60
2023-02-04T05:14:55.278Z,0.80
2023-02-04T05:17:24.074Z,0.80
2023-02-04T05:19:50.632Z,0.90
2023-02-04T05:22:19.564Z,1.00
2023-02-04T05:24:48.498Z,0.90
2023-02-04T05:27:15.086Z,0.70
2023-02-04T05:29:41.767Z,0.80
2023-02-04T05:32:13.113Z,0.80
2023-02-04T05:34:40.055Z,0.90
2023-02-04T05:37:11.184Z,0.90
2023-02-04T05:39:39.952Z,0.85
2023-02-04T05:42:06.545Z,0.70
2023-02-04T05:44:33.086Z,0.93
2023-02-04T05:46:59.682Z,0.80
2023-02-04T05:49:28.474Z,0.90
2023-02-04T05:51:59.949Z,1.17
2023-02-04T05:54:31.531Z,1.50
2023-02-04T05:56:58.243Z,1.33
2023-02-04T05:59:24.939Z,1.85
2023-02-04T06:01:53.763Z,1.27
2023-02-04T06:04:22.749Z,1.10
2023-02-04T06:06:49.317Z,1.02
2023-02-04T06:09:18.373Z,0.90
2023-02-04T06:11:44.904Z,0.80
2023-02-04T06:14:11.493Z,0.80
2023-02-04T06:16:38.124Z,0.85
2023-02-04T06:19:04.702Z,1.05
2023-02-04T06:21:31.223Z,1.00
2023-02-04T06:23:57.773Z,0.90
2023-02-04T06:26:29.241Z,0.90
2023-02-04T06:28:58.279Z,1.20
2023-02-04T06:31:29.351Z,1.00
2023-02-04T06:33:58.957Z,0.73
2023-02-04T06:36:25.676Z,0.80
2023-02-04T06:38:52.284Z,1.00
2023-02-04T06:41:21.784Z,0.90
2023-02-04T06:43:53.092Z,0.80
2023-02-04T06:46:22.001Z,0.70
2023-02-04T06:48:48.623Z,0.77
2023-02-04T06:51:15.601Z,0.87
2023-02-04T06:53:44.221Z,0.90
2023-02-04T06:56:11.357Z,0.90
2023-02-04T06:58:40.285Z,0.90
2023-02-04T07:01:09.131Z,0.75
2023-02-04T07:03:35.681Z,0.90
2023-02-04T07:06:02.232Z,1.10
2023-02-04T07:08:28.874Z,0.90
2023-02-04T07:10:57.638Z,0.70
2023-02-04T07:13:24.320Z,0.90
2023-02-04T07:15:52.578Z,0.60
2023-02-04T07:18:19.978Z,0.70
2023-02-04T07:20:48.766Z,1.00
2023-02-04T07:23:17.447Z,0.90
2023-02-04T07:25:44.260Z,0.98
2023-02-04T07:28:10.897Z,0.90
2023-02-04T07:30:37.529Z,0.90
2023-02-04T07:33:04.216Z,1.00
2023-02-04T07:35:33.219Z,0.80
2023-02-04T07:37:59.741Z,1.10
2023-02-04T07:40:28.542Z,1.03
2023-02-04T07:42:57.591Z,1.17
2023-02-04T07:45:26.993Z,0.95
2023-02-04T07:47:55.828Z,1.25
2023-02-04T07:50:27.219Z,1.10
2023-02-04T07:52:56.064Z,1.23
2023-02-04T07:55:25.235Z,1.23
2023-02-04T07:57:51.778Z,1.40
2023-02-04T08:00:18.539Z,1.10
2023-02-04T08:02:46.486Z,1.27
2023-02-04T08:05:15.365Z,1.43
2023-02-04T08:07:44.153Z,1.50
2023-02-04T08:10:11.374Z,1.10
2023-02-04T08:12:38.065Z,1.13
2023-02-04T08:15:09.919Z,1.50
2023-02-04T08:17:36.510Z,1.37
2023-02-04T08:20:03.890Z,1.23
2023-02-04T08:22:32.770Z,1.35
2023-02-04T08:25:05.306Z,1.13
2023-02-04T08:27:31.837Z,1.30
2023-02-04T08:29:58.404Z,1.50
2023-02-04T08:32:26.774Z,1.33
2023-02-04T08:34:53.359Z,1.63
2023-02-04T08:37:22.114Z,1.50
2023-02-04T08:39:49.133Z,1.50
2023-02-04T08:42:18.237Z,1.20
2023-02-04T08:44:47.769Z,1.60
2023-02-04T08:47:14.405Z,1.55
2023-02-04T08:49:43.140Z,1.60
2023-02-04T08:52:10.131Z,1.13
2023-02-04T08:54:39.137Z,1.50
2023-02-04T08:57:05.771Z,1.80
2023-02-04T08:59:32.366Z,1.63
2023-02-04T09:01:59.068Z,1.77
2023-02-04T09:04:28.797Z,1.50
2023-02-04T09:06:57.916Z,1.50
2023-02-04T09:09:26.212Z,1.83
2023-02-04T09:11:55.560Z,1.48
2023-02-04T09:14:22.113Z,1.20
2023-02-04T09:16:49.210Z,1.45
2023-02-04T09:19:16.610Z,1.57
2023-02-04T09:21:43.169Z,1.75
2023-02-04T09:24:14.366Z,1.48
2023-02-04T09:26:45.795Z,1.23
2023-02-04T09:29:14.844Z,1.70
2023-02-04T09:31:45.022Z,1.40
2023-02-04T09:34:11.568Z,1.30
2023-02-04T09:36:40.553Z,1.45
2023-02-04T09:39:10.073Z,1.80
2023-02-04T09:41:42.789Z,2.00
2023-02-04T09:44:19.940Z,1.90
2023-02-04T09:46:53.522Z,1.73
2023-02-04T09:49:22.286Z,1.55
2023-02-04T09:51:49.931Z,1.58
2023-02-04T09:54:21.623Z,1.60
2023-02-04T09:56:52.043Z,1.90
2023-02-04T09:59:21.472Z,2.10
2023-02-04T10:02:02.085Z,2.10
2023-02-04T10:04:33.461Z,1.98
2023-02-04T10:07:04.105Z,2.03
2023-02-04T10:09:30.695Z,1.80
2023-02-04T10:12:02.570Z,1.70
2023-02-04T10:14:29.154Z,1.70
2023-02-04T10:17:03.439Z,1.45
2023-02-04T10:19:34.010Z,1.98
2023-02-04T10:22:03.247Z,1.50
2023-02-04T10:24:34.658Z,4.20
2023-02-04T10:27:12.217Z,3.47
2023-02-04T10:29:42.334Z,3.00
2023-02-04T10:32:29.993Z,2.85
2023-02-04T10:35:01.130Z,1.60
2023-02-04T10:37:32.111Z,1.85
2023-02-04T10:40:00.974Z,1.98
2023-02-04T10:42:33.845Z,2.05
2023-02-04T10:45:02.703Z,1.80
2023-02-04T10:47:31.864Z,1.80
2023-02-04T10:50:15.058Z,1.75
2023-02-04T10:52:49.648Z,1.63
2023-02-04T10:55:22.740Z,1.60
2023-02-04T10:57:52.589Z,1.88
2023-02-04T11:00:19.362Z,1.50
2023-02-04T11:03:12.303Z,1.65
2023-02-04T11:05:41.256Z,1.25
2023-02-04T11:08:26.118Z,1.17
2023-02-04T11:10:58.161Z,1.35
2023-02-04T11:13:59.561Z,1.30
2023-02-04T11:16:46.617Z,1.60
2023-02-04T11:19:17.231Z,1.70
2023-02-04T11:21:45.834Z,1.80
2023-02-04T11:24:12.523Z,1.40
2023-02-04T11:26:41.647Z,1.40
2023-02-04T11:29:13.002Z,1.65
2023-02-04T11:31:42.492Z,1.55
2023-02-04T11:34:18.475Z,1.58
2023-02-04T11:36:57.284Z,2.00
2023-02-04T11:39:28.828Z,1.60
2023-02-04T11:41:55.508Z,1.90
2023-02-04T11:44:23.140Z,1.70
2023-02-04T11:46:58.429Z,1.70
2023-02-04T11:49:26.895Z,1.90
2023-02-04T11:52:12.718Z,1.70
2023-02-04T11:54:39.334Z,2.10
2023-02-04T11:57:10.744Z,1.85
2023-02-04T11:59:42.196Z,1.83
2023-02-04T12:02:20.708Z,1.80
2023-02-04T12:05:12.643Z,2.03
2023-02-04T12:07:40.070Z,1.52
2023-02-04T12:10:25.198Z,1.83
2023-02-04T12:12:55.909Z,1.90
2023-02-04T12:15:25.198Z,2.05
2023-02-04T12:18:20.950Z,2.20
2023-02-04T12:20:47.464Z,1.80
2023-02-04T12:23:14.019Z,2.25
2023-02-04T12:25:40.613Z,2.40
2023-02-04T12:28:07.163Z,2.70
2023-02-04T12:30:36.854Z,2.67
2023-02-04T12:33:05.712Z,3.05
2023-02-04T12:35:34.699Z,3.22
2023-02-04T12:38:07.261Z,3.72
2023-02-04T12:40:33.873Z,3.47
2023-02-04T12:43:00.552Z,3.20
2023-02-04T12:45:29.749Z,3.15
2023-02-04T12:47:56.369Z,3.70
2023-02-04T12:50:23.023Z,3.75
2023-02-04T12:52:55.817Z,4.00
2023-02-04T12:55:24.153Z,3.40
2023-02-04T12:57:53.495Z,3.70
2023-02-04T13:00:21.083Z,3.90
2023-02-04T13:02:48.028Z,4.15
2023-02-04T13:05:18.547Z,4.05
2023-02-04T13:07:45.101Z,4.33
2023-02-04T13:10:18.082Z,4.15
2023-02-04T13:12:47.024Z,4.32
2023-02-04T13:15:13.799Z,4.13
2023-02-04T13:17:40.347Z,3.92
2023-02-04T13:20:09.721Z,4.20
2023-02-04T13:22:36.277Z,3.80
2023-02-04T13:25:05.031Z,4.30
2023-02-04T13:27:33.822Z,4.10
2023-02-04T13:30:00.420Z,4.65
2023-02-04T13:32:27.190Z,4.10
2023-02-04T13:34:56.077Z,3.97
2023-02-04T13:37:25.003Z,3.70
2023-02-04T13:39:51.674Z,4.18
2023-02-04T13:42:21.545Z,4.05
2023-02-04T13:44:48.121Z,3.90
2023-02-04T13:47:19.434Z,2.47
2023-02-04T13:49:46.001Z,2.83
2023-02-04T13:52:12.600Z,1.60
2023-02-04T13:54:41.469Z,2.10
2023-02-04T13:57:08.126Z,2.03
2023-02-04T13:59:34.658Z,1.67
2023-02-04T14:02:03.979Z,1.50
2023-02-04T14:04:30.573Z,1.88
2023-02-04T14:06:57.187Z,1.90
2023-02-04T14:09:25.423Z,1.80
2023-02-04T14:11:51.977Z,1.92
2023-02-04T14:14:23.008Z,1.63
2023-02-04T14:16:49.605Z,1.60
2023-02-04T14:19:16.145Z,1.50
2023-02-04T14:21:42.722Z,1.20
2023-02-04T14:24:12.157Z,1.35
2023-02-04T14:26:38.740Z,1.42
2023-02-04T14:29:07.543Z,1.00
2023-02-04T14:31:34.265Z,1.17
2023-02-04T14:34:00.859Z,1.10
2023-02-04T14:36:27.453Z,1.83
2023-02-04T14:38:54.056Z,1.60
2023-02-04T14:41:26.290Z,1.60
2023-02-04T14:43:55.207Z,1.90
2023-02-04T14:46:21.837Z,1.83
2023-02-04T14:48:48.712Z,1.83
2023-02-04T14:51:15.276Z,1.90
2023-02-04T14:53:46.063Z,2.05
2023-02-04T14:56:14.991Z,1.80
2023-02-04T14:58:41.657Z,1.80
2023-02-04T15:01:13.272Z,1.60
2023-02-04T15:03:39.922Z,1.65
2023-02-04T15:06:06.622Z,2.00
2023-02-04T15:08:35.638Z,2.05
2023-02-04T15:11:02.556Z,1.73
2023-02-04T15:13:31.462Z,1.63
2023-02-04T15:15:58.099Z,1.73
2023-02-04T15:18:24.901Z,1.30
2023-02-04T15:20:51.476Z,1.85
2023-02-04T15:23:20.480Z,1.50
2023-02-04T15:25:47.335Z,1.60
2023-02-04T15:28:16.055Z,1.60
2023-02-04T15:30:42.668Z,1.63
2023-02-04T15:33:09.280Z,1.75
2023-02-04T15:35:35.846Z,1.67
2023-02-04T15:38:02.382Z,1.58
2023-02-04T15:40:32.282Z,1.52
2023-02-04T15:43:01.246Z,1.98
2023-02-04T15:45:29.984Z,1.70
2023-02-04T15:47:56.534Z,1.80
2023-02-04T15:50:28.674Z,1.95
2023-02-04T15:52:55.223Z,1.60
2023-02-04T15:55:24.314Z,1.60
2023-02-04T15:57:53.162Z,1.17
2023-02-04T16:00:25.278Z,0.80
2023-02-04T16:02:51.964Z,0.60
2023-02-04T16:05:20.809Z,0.70
2023-02-04T16:07:50.375Z,0.60
2023-02-04T16:10:20.643Z,0.88
2023-02-04T16:12:51.290Z,0.73
2023-02-04T16:15:18.443Z,0.65
2023-02-04T16:17:44.944Z,0.60
2023-02-04T16:20:11.669Z,0.85
2023-02-04T16:22:38.241Z,0.80
2023-02-04T16:25:05.154Z,0.77
2023-02-04T16:27:34.040Z,0.70
2023-02-04T16:30:00.736Z,0.68
2023-02-04T16:32:27.485Z,0.75
2023-02-04T16:34:55.990Z,0.60
2023-02-04T16:37:22.852Z,0.80
2023-02-04T16:39:52.197Z,0.82
2023-02-04T16:42:22.055Z,0.90
2023-02-04T16:44:50.978Z,0.90
2023-02-04T16:47:17.531Z,0.57
2023-02-04T16:49:48.288Z,0.80
2023-02-04T16:52:17.898Z,0.70
2023-02-04T16:54:46.691Z,0.95
2023-02-04T16:57:14.709Z,0.63
2023-02-04T16:59:43.750Z,1.05
2023-02-04T17:02:12.975Z,1.03
2023-02-04T17:04:42.492Z,0.80
2023-02-04T17:07:09.237Z,1.00
2023-02-04T17:09:35.875Z,1.48
2023-02-04T17:12:04.723Z,0.90
2023-02-04T17:14:31.321Z,1.27
2023-02-04T17:17:00.146Z,1.40
2023-02-04T17:19:26.813Z,1.20
2023-02-04T17:21:53.863Z,0.80
2023-02-04T17:24:20.867Z,1.60
2023-02-04T17:26:49.505Z,0.80
2023-02-04T17:29:19.141Z,1.00
2023-02-04T17:31:48.013Z,0.98
2023-02-04T17:34:19.352Z,1.08
2023-02-04T17:36:46.170Z,1.30
2023-02-04T17:39:17.729Z,0.90
2023-02-04T17:41:44.302Z,1.17
2023-02-04T17:44:16.855Z,0.95
2023-02-04T17:46:46.090Z,1.23
2023-02-04T17:49:14.854Z,1.42
2023-02-04T17:51:41.363Z,0.90
2023-02-04T17:54:07.968Z,1.13
2023-02-04T17:56:36.960Z,1.00
2023-02-04T17:59:12.265Z,1.13
2023-02-04T18:01:42.909Z,1.00
2023-02-04T18:04:14.011Z,0.90
2023-02-04T18:06:40.717Z,0.80
2023-02-04T18:09:21.756Z,0.70
2023-02-04T18:11:48.396Z,0.88
2023-02-04T18:14:26.262Z,0.82
2023-02-04T18:16:58.508Z,1.10
2023-02-04T18:19:37.031Z,0.88
2023-02-04T18:22:13.246Z,0.98
2023-02-04T18:24:42.840Z,1.30
2023-02-04T18:27:24.218Z,1.20
2023-02-04T18:29:55.510Z,0.97
2023-02-04T18:32:38.980Z,1.10
2023-02-04T18:35:36.067Z,1.83
2023-02-04T18:38:16.231Z,1.55
2023-02-04T18:40:42.847Z,1.00
2023-02-04T18:43:21.805Z,1.13
2023-02-04T18:45:48.467Z,1.83
2023-02-04T18:48:18.089Z,1.10
2023-02-04T18:50:44.925Z,1.38
2023-02-04T18:53:14.996Z,1.80
2023-02-04T18:55:50.227Z,1.03
2023-02-04T18:58:22.558Z,1.38
2023-02-04T19:01:03.276Z,1.40
2023-02-04T19:03:33.469Z,1.30
2023-02-04T19:06:19.100Z,1.45
2023-02-04T19:08:46.203Z,1.40
2023-02-04T19:11:31.644Z,1.25
2023-02-04T19:13:59.262Z,1.30
2023-02-04T19:16:43.382Z,1.08
2023-02-04T19:19:38.293Z,1.35
2023-02-04T19:22:18.307Z,1.30
2023-02-04T19:24:47.704Z,1.50
2023-02-04T19:27:32.408Z,1.45
2023-02-04T19:30:22.893Z,0.98
2023-02-04T19:32:55.690Z,1.23
2023-02-04T19:35:27.478Z,0.97
2023-02-04T19:37:55.094Z,1.38
2023-02-04T19:40:35.728Z,1.00
2023-02-04T19:43:10.402Z,1.10
2023-02-04T19:45:39.172Z,1.25
2023-02-04T19:48:20.592Z,1.10
2023-02-04T19:50:52.772Z,1.33
2023-02-04T19:53:22.444Z,1.00
2023-02-04T19:55:55.434Z,1.27
2023-02-04T19:58:38.173Z,1.10
2023-02-04T20:01:08.392Z,1.17
2023-02-04T20:03:48.160Z,1.17
2023-02-04T20:06:39.173Z,1.33
2023-02-04T20:09:05.774Z,1.23
2023-02-04T20:11:35.254Z,1.27
2023-02-04T20:14:14.142Z,1.20
2023-02-04T20:16:46.921Z,1.25
2023-02-04T20:19:32.777Z,1.30
2023-02-04T20:22:01.867Z,1.05
2023-02-04T20:24:35.142Z,1.27
2023-02-04T20:27:35.402Z,1.30
2023-02-04T20:30:31.752Z,1.13
2023-02-04T20:33:13.325Z,1.25
2023-02-04T20:35:42.087Z,1.75
2023-02-04T20:38:18.946Z,1.30
2023-02-04T20:40:50.420Z,1.27
2023-02-04T20:43:24.173Z,1.75
2023-02-04T20:46:00.262Z,1.50
2023-02-04T20:48:41.640Z,1.63
2023-02-04T20:51:24.056Z,1.52
2023-02-04T20:53:57.858Z,1.53
2023-02-04T20:56:40.192Z,1.50
2023-02-04T20:59:15.201Z,1.63
2023-02-04T21:01:48.758Z,1.50
2023-02-04T21:04:23.308Z,1.00
2023-02-04T21:06:51.675Z,1.20
2023-02-04T21:09:23.337Z,1.75
2023-02-04T21:11:51.705Z,1.65
2023-02-04T21:14:18.352Z,1.50
2023-02-04T21:16:47.644Z,1.55
2023-02-04T21:19:14.984Z,1.50
2023-02-04T21:21:44.321Z,1.52
2023-02-04T21:24:16.149Z,1.58
2023-02-04T21:26:42.704Z,1.58
2023-02-04T21:29:10.412Z,1.20
2023-02-04T21:31:39.372Z,1.77
2023-02-04T21:34:10.012Z,1.50
2023-02-04T21:36:39.119Z,1.65
2023-02-04T21:39:07.972Z,1.30
2023-02-04T21:41:37.561Z,1.17
2023-02-04T21:44:04.381Z,1.40
2023-02-04T21:46:33.193Z,1.25
2023-02-04T21:49:03.981Z,1.42
2023-02-04T21:51:33.599Z,1.45
2023-02-04T21:54:00.923Z,1.95
2023-02-04T21:56:27.485Z,1.60
2023-02-04T21:58:54.382Z,1.60
2023-02-04T22:01:20.985Z,2.22
2023-02-04T22:03:47.592Z,1.30
2023-02-04T22:06:14.402Z,1.20
2023-02-04T22:08:43.419Z,1.50
2023-02-04T22:11:12.920Z,1.30
2023-02-04T22:13:39.470Z,1.30
2023-02-04T22:16:06.124Z,1.35
2023-02-04T22:18:35.056Z,1.40
2023-02-04T22:21:01.816Z,1.43
2023-02-04T22:23:28.588Z,1.33
2023-02-04T22:25:55.120Z,1.48
2023-02-04T22:28:24.678Z,1.73
2023-02-04T22:30:53.892Z,2.33
2023-02-04T22:33:22.915Z,1.47
2023-02-04T22:35:51.987Z,2.22
2023-02-04T22:38:21.535Z,2.00
2023-02-04T22:40:52.891Z,1.80
2023-02-04T22:43:21.672Z,1.73
2023-02-04T22:45:48.246Z,1.70
2023-02-04T22:48:14.790Z,1.60
2023-02-04T22:50:41.324Z,1.92
2023-02-04T22:53:07.841Z,1.70
2023-02-04T22:55:34.662Z,1.70
2023-02-04T22:58:01.380Z,1.60
2023-02-04T23:00:28.002Z,1.63
2023-02-04T23:02:56.880Z,1.60
2023-02-04T23:05:25.916Z,1.65
2023-02-04T23:07:55.551Z,2.58
2023-02-04T23:10:26.958Z,2.47
2023-02-04T23:12:55.966Z,2.40
2023-02-04T23:15:22.676Z,1.90
2023-02-04T23:17:49.223Z,2.15
2023-02-04T23:20:18.159Z,2.00
2023-02-04T23:22:44.794Z,2.00
2023-02-04T23:25:11.367Z,2.20
2023-02-04T23:27:42.502Z,1.75
2023-02-04T23:30:10.587Z,1.95
2023-02-04T23:32:39.868Z,2.30
2023-02-04T23:35:07.317Z,2.03
2023-02-04T23:37:36.257Z,2.63
2023-02-04T23:40:06.134Z,2.50
2023-02-04T23:42:35.129Z,2.47
2023-02-04T23:45:01.701Z,2.40
2023-02-04T23:47:31.230Z,1.93
2023-02-04T23:50:00.405Z,2.42
2023-02-04T23:52:29.501Z,2.50
2023-02-04T23:54:56.366Z,2.33
2023-02-04T23:57:22.913Z,2.25
2023-02-04T23:59:52.509Z,2.77
